Página principal
METAR-TAF:

METAR-TAF

Aeroportos :

Kunming, China

latitude: 25-01N, longitude: 102-41E, altura: 1892 m

Observação actual do tempo

O boletim foi feito há 37 minutos, às 12:00 UTC
Vento 8 kt de oeste, variando entre oes-sudoeste e noroeste
Temperatura 13°C
Humidade 33%
Pressão 1022 hPa
Visibilidade 10 km ou mais
sem nuvens abaixo de 1500 metros e sem cumulonimbus

METAR: ZPPP 161200Z 27004MPS 240V310 CAVOK 13/M03 Q1022 NOSIG

Hora: 20:37 (12:37 UTC)

Previsão

O boletim foi feito há 5 horas e 32 minutos, às 07:05 UTC
Previsão válida de 16 às 12 UTC a 17 às 12 UTC
Vento 14 kt de sudoeste
Visibilidade 10 km ou mais
sem nuvens abaixo de 1500 metros e sem cumulonimbus

TAF: ZPPP 160705Z 1612/1712 22007MPS CAVOK TX19/1708Z TN04/1623Z

Observações e previsões do tempo de mais de 4000 aeroportos (mensagens METAR e TAF).

As estações disponíveis são os pontos amarelos e vermelhos sobre o mapa.

Mova o rato sobre o mapa para ver o nome da estação.

Depois clique no ponto para visualizar as observações e previsões meteorológicas.

Para alterar o mapa : clique nos botões verdes com uma cruz preta para aumentar o zoom; no botão verde com uma pitada de zoom; ou nas setas verdes para mapas adjacentes.


METAR-TAF: